Information Last Ob Photographs Calibration Meteogram Network Table Neighbors Monthly Summaries Observation History Wind Roses Custom Wind Roses Data Calendar Satellite Cloud Product Download

Satellite Cloud Product

NESDIS produces a Satellite Cloud Product (SCP) that supplements the ASOS ceilometer readings. This page merges the SCP data with the METAR observations for a given UTC date. Cloud level values are presented in feet above ground level. ECA represents estimated cloud amount expressed in percentage. An IEM Web Service provided the following JSON dataset for this page. Data is available for some sites back to 1993.

Year: Month: Day: Time Order:

 

SCP Valid UTCSatellite East SounderSatellite West SounderASOS METAR Report
Mid CloudsHigh CloudsLevels [ft]ECA [%]Mid CloudsHigh CloudsLevels [ft]ECA [%]Levels ftMETAR
0050ZSCT14000 - 310005SCT13000 - 2400012CLR KCWI 250056Z AUTO 19008KT 10SM CLR M01/M08 A2997 RMK AO2 SLP163 T10111083 FZRANO
0150ZSCT13000 - 240002SCT14000 - 230004CLR KCWI 250156Z AUTO 18008KT 10SM CLR M01/M08 A2996 RMK AO2 SLP159 T10111078 FZRANO
0250ZCLR-0SCT14000 - 200000CLR KCWI 250256Z AUTO 17009KT 10SM CLR M01/M08 A2994 RMK AO2 SLP151 T10111078 58004 FZRANO
0350ZCLR-0CLR-0CLR KCWI 250356Z AUTO 16008KT 10SM CLR M01/M08 A2991 RMK AO2 SLP143 T10111078 FZRANO
0450ZCLR-0CLR-0CLR KCWI 250456Z AUTO 15008KT 10SM CLR M01/M08 A2988 RMK AO2 SLP132 T10111078 FZRANO
0550ZCLR-0CLR-0CLR KCWI 250556Z AUTO 15007KT 10SM CLR M01/M07 A2986 RMK AO2 SLP125 T10111072 10011 21022 400391106 56026 FZRANO
0650ZCLR-0CLR-0CLR KCWI 250656Z AUTO 16008KT 10SM CLR M01/M07 A2984 RMK AO2 SLP115 T10111067 FZRANO
0750ZCLR-0CLR-0CLR KCWI 250756Z AUTO 18007KT 10SM CLR M02/M07 A2982 RMK AO2 SLP108 T10171067 FZRANO
0850ZSCT21000 - 260001SCT16000 - 250002CLR KCWI 250856Z AUTO 18006KT 10SM CLR M02/M06 A2979 RMK AO2 SLP099 T10171061 57024 FZRANO
0950ZSCT17000 - 3100017SCT13000 - 2800016CLR KCWI 250956Z AUTO 17007KT 10SM CLR M01/M06 A2977 RMK AO2 SLP091 T10111061 FZRANO
1050ZSCT29000 - 290000SCT13000 - 270002CLR KCWI 251056Z AUTO 19008KT 10SM CLR M01/M06 A2976 RMK AO2 SLP088 T10111056 FZRANO